sensor_id;sensor_type;location;lat;lon;timestamp;pressure;altitude;pressure_sealevel;temperature;humidity
9523;BME280;63165;43.016;25.784;2022-09-09T00:01:43;100025.06;;;21.56;50.76
9523;BME280;63165;43.016;25.784;2022-09-09T00:04:24;100023.72;;;21.49;51.48
9523;BME280;63165;43.016;25.784;2022-09-09T00:07:01;100030.59;;;21.53;51.16
9523;BME280;63165;43.016;25.784;2022-09-09T00:09:35;100033.34;;;21.51;51.10
9523;BME280;63165;43.016;25.784;2022-09-09T00:12:11;100030.69;;;21.51;51.10
9523;BME280;63165;43.016;25.784;2022-09-09T00:14:47;100020.03;;;21.51;51.27
9523;BME280;63165;43.016;25.784;2022-09-09T00:17:26;100015.88;;;21.47;51.16
9523;BME280;63165;43.016;25.784;2022-09-09T00:20:03;100022.69;;;21.51;51.09
9523;BME280;63165;43.016;25.784;2022-09-09T00:22:38;100018.88;;;21.56;50.20
9523;BME280;63165;43.016;25.784;2022-09-09T00:25:11;100025.06;;;21.56;50.85
9523;BME280;63165;43.016;25.784;2022-09-09T00:27:42;100025.63;;;21.47;51.14
9523;BME280;63165;43.016;25.784;2022-09-09T00:30:16;100035.25;;;21.49;50.59
9523;BME280;63165;43.016;25.784;2022-09-09T00:32:46;100037.16;;;21.47;51.45
9523;BME280;63165;43.016;25.784;2022-09-09T00:35:21;100037.34;;;21.44;51.51
9523;BME280;63165;43.016;25.784;2022-09-09T00:37:53;100036.53;;;21.42;51.43
9523;BME280;63165;43.016;25.784;2022-09-09T00:40:26;100035.13;;;21.37;51.50
9523;BME280;63165;43.016;25.784;2022-09-09T00:43:10;100032.47;;;21.37;51.93
9523;BME280;63165;43.016;25.784;2022-09-09T00:45:58;100036.34;;;21.31;52.79
9523;BME280;63165;43.016;25.784;2022-09-09T00:48:32;100026.09;;;21.25;52.90
9523;BME280;63165;43.016;25.784;2022-09-09T00:51:07;100024.56;;;21.21;52.80
9523;BME280;63165;43.016;25.784;2022-09-09T00:53:39;100024.84;;;21.16;53.08
9523;BME280;63165;43.016;25.784;2022-09-09T00:56:13;100024.19;;;21.12;53.28
9523;BME280;63165;43.016;25.784;2022-09-09T00:58:44;100030.63;;;21.08;53.88
9523;BME280;63165;43.016;25.784;2022-09-09T01:01:16;100027.47;;;21.02;54.00
9523;BME280;63165;43.016;25.784;2022-09-09T01:03:49;100019.03;;;20.95;54.54
9523;BME280;63165;43.016;25.784;2022-09-09T01:06:23;100022.72;;;20.92;55.39
9523;BME280;63165;43.016;25.784;2022-09-09T01:09:09;100017.78;;;20.86;55.22
9523;BME280;63165;43.016;25.784;2022-09-09T01:11:46;100026.47;;;20.74;55.25
9523;BME280;63165;43.016;25.784;2022-09-09T01:14:27;100013.38;;;20.71;55.46
9523;BME280;63165;43.016;25.784;2022-09-09T01:17:00;100013.38;;;20.71;56.33
9523;BME280;63165;43.016;25.784;2022-09-09T01:19:40;99996.66;;;20.53;56.01
9523;BME280;63165;43.016;25.784;2022-09-09T01:22:19;100021.03;;;20.61;56.02
9523;BME280;63165;43.016;25.784;2022-09-09T01:25:15;100031.81;;;20.58;56.04
9523;BME280;63165;43.016;25.784;2022-09-09T01:27:48;100017.25;;;20.49;56.63
9523;BME280;63165;43.016;25.784;2022-09-09T01:30:18;100022.84;;;20.45;56.68
9523;BME280;63165;43.016;25.784;2022-09-09T01:32:47;100021.41;;;20.39;56.98
9523;BME280;63165;43.016;25.784;2022-09-09T01:35:21;100021.56;;;20.36;57.45
9523;BME280;63165;43.016;25.784;2022-09-09T01:37:53;100014.72;;;20.32;57.42
9523;BME280;63165;43.016;25.784;2022-09-09T01:40:21;100021.94;;;20.30;57.76
9523;BME280;63165;43.016;25.784;2022-09-09T01:42:49;100017.91;;;20.23;58.12
9523;BME280;63165;43.016;25.784;2022-09-09T01:45:17;100023.47;;;20.18;57.88
9523;BME280;63165;43.016;25.784;2022-09-09T01:47:45;100033.53;;;20.13;58.46
9523;BME280;63165;43.016;25.784;2022-09-09T01:50:15;100014.84;;;19.98;58.79
9523;BME280;63165;43.016;25.784;2022-09-09T01:52:44;100004.81;;;19.88;59.41
9523;BME280;63165;43.016;25.784;2022-09-09T01:55:14;100019.31;;;19.98;59.58
9523;BME280;63165;43.016;25.784;2022-09-09T01:57:47;100023.16;;;19.92;59.88
9523;BME280;63165;43.016;25.784;2022-09-09T02:00:18;100027.78;;;19.89;59.40
9523;BME280;63165;43.016;25.784;2022-09-09T02:02:54;100017.25;;;19.87;59.80
9523;BME280;63165;43.016;25.784;2022-09-09T02:05:31;100023.41;;;19.88;59.62
9523;BME280;63165;43.016;25.784;2022-09-09T02:08:05;100024.38;;;19.87;59.48
9523;BME280;63165;43.016;25.784;2022-09-09T02:10:39;99999.84;;;19.66;60.00
9523;BME280;63165;43.016;25.784;2022-09-09T02:13:10;100028.84;;;19.69;60.38
9523;BME280;63165;43.016;25.784;2022-09-09T02:15:45;100028.34;;;19.62;60.30
9523;BME280;63165;43.016;25.784;2022-09-09T02:18:19;100031.16;;;19.59;60.79
9523;BME280;63165;43.016;25.784;2022-09-09T02:20:49;100026.34;;;19.50;61.31
9523;BME280;63165;43.016;25.784;2022-09-09T02:23:19;100019.50;;;19.46;61.75
9523;BME280;63165;43.016;25.784;2022-09-09T02:25:46;100016.22;;;19.40;61.81
9523;BME280;63165;43.016;25.784;2022-09-09T02:28:18;100018.97;;;19.39;61.84
9523;BME280;63165;43.016;25.784;2022-09-09T02:30:50;100012.44;;;19.29;62.06
9523;BME280;63165;43.016;25.784;2022-09-09T02:33:22;100015.47;;;19.38;61.60
9523;BME280;63165;43.016;25.784;2022-09-09T02:35:51;100021.00;;;19.34;62.06
9523;BME280;63165;43.016;25.784;2022-09-09T02:38:19;100010.38;;;19.34;61.91
9523;BME280;63165;43.016;25.784;2022-09-09T02:40:48;100017.56;;;19.32;62.32
9523;BME280;63165;43.016;25.784;2022-09-09T02:43:15;99998.19;;;19.14;62.96
9523;BME280;63165;43.016;25.784;2022-09-09T02:45:53;100004.91;;;19.21;63.14
9523;BME280;63165;43.016;25.784;2022-09-09T02:48:30;100011.97;;;19.20;63.46
9523;BME280;63165;43.016;25.784;2022-09-09T02:51:07;100013.16;;;19.15;63.41
9523;BME280;63165;43.016;25.784;2022-09-09T02:53:46;100014.03;;;19.15;64.19
9523;BME280;63165;43.016;25.784;2022-09-09T02:56:21;100012.66;;;19.08;64.42
9523;BME280;63165;43.016;25.784;2022-09-09T02:58:49;99974.31;;;18.80;63.86
9523;BME280;63165;43.016;25.784;2022-09-09T03:01:19;100011.41;;;18.98;64.62
9523;BME280;63165;43.016;25.784;2022-09-09T03:03:46;100006.16;;;18.96;64.86
9523;BME280;63165;43.016;25.784;2022-09-09T03:06:13;100010.00;;;18.91;64.57
9523;BME280;63165;43.016;25.784;2022-09-09T03:08:40;100010.31;;;18.85;64.63
9523;BME280;63165;43.016;25.784;2022-09-09T03:11:08;100010.41;;;18.83;65.46
9523;BME280;63165;43.016;25.784;2022-09-09T03:13:36;100014.84;;;18.83;65.62
9523;BME280;63165;43.016;25.784;2022-09-09T03:16:04;100015.84;;;18.80;65.33
9523;BME280;63165;43.016;25.784;2022-09-09T03:18:32;100025.66;;;18.78;65.68
9523;BME280;63165;43.016;25.784;2022-09-09T03:21:00;100011.94;;;18.70;65.74
9523;BME280;63165;43.016;25.784;2022-09-09T03:23:27;100021.91;;;18.65;66.34
9523;BME280;63165;43.016;25.784;2022-09-09T03:25:54;100014.91;;;18.63;66.56
9523;BME280;63165;43.016;25.784;2022-09-09T03:28:24;100011.31;;;18.65;66.60
9523;BME280;63165;43.016;25.784;2022-09-09T03:30:59;100009.59;;;18.63;66.32
9523;BME280;63165;43.016;25.784;2022-09-09T03:33:26;99995.56;;;18.61;66.77
9523;BME280;63165;43.016;25.784;2022-09-09T03:35:55;99997.38;;;18.61;66.30
9523;BME280;63165;43.016;25.784;2022-09-09T03:38:23;100001.97;;;18.57;66.68
9523;BME280;63165;43.016;25.784;2022-09-09T03:40:51;100011.88;;;18.54;66.82
9523;BME280;63165;43.016;25.784;2022-09-09T03:43:21;100017.44;;;18.48;66.55
9523;BME280;63165;43.016;25.784;2022-09-09T03:45:49;100005.53;;;18.39;66.59
9523;BME280;63165;43.016;25.784;2022-09-09T03:48:18;100018.00;;;18.37;67.40
9523;BME280;63165;43.016;25.784;2022-09-09T03:50:46;100021.66;;;18.34;67.73
9523;BME280;63165;43.016;25.784;2022-09-09T03:53:16;100016.41;;;18.33;67.64
9523;BME280;63165;43.016;25.784;2022-09-09T03:55:45;100017.44;;;18.30;67.98
9523;BME280;63165;43.016;25.784;2022-09-09T03:58:12;100012.06;;;18.32;68.03
9523;BME280;63165;43.016;25.784;2022-09-09T04:00:40;100000.31;;;18.20;67.93
9523;BME280;63165;43.016;25.784;2022-09-09T04:03:08;100023.75;;;18.28;67.89
9523;BME280;63165;43.016;25.784;2022-09-09T04:05:35;100017.97;;;18.19;68.31
9523;BME280;63165;43.016;25.784;2022-09-09T04:08:05;100029.34;;;18.21;68.44
9523;BME280;63165;43.016;25.784;2022-09-09T04:10:35;100033.91;;;18.18;68.40
9523;BME280;63165;43.016;25.784;2022-09-09T04:13:03;100030.34;;;18.19;69.12
9523;BME280;63165;43.016;25.784;2022-09-09T04:15:30;100030.41;;;18.17;69.68
9523;BME280;63165;43.016;25.784;2022-09-09T04:17:58;100031.28;;;18.18;69.63
9523;BME280;63165;43.016;25.784;2022-09-09T04:20:26;100030.50;;;18.16;69.33
9523;BME280;63165;43.016;25.784;2022-09-09T04:22:53;100040.16;;;18.17;69.48
9523;BME280;63165;43.016;25.784;2022-09-09T04:25:20;100038.59;;;18.13;70.12
9523;BME280;63165;43.016;25.784;2022-09-09T04:27:53;100042.16;;;18.12;70.65
9523;BME280;63165;43.016;25.784;2022-09-09T04:30:20;100021.06;;;18.10;70.37
9523;BME280;63165;43.016;25.784;2022-09-09T04:32:47;100024.41;;;18.14;70.87
9523;BME280;63165;43.016;25.784;2022-09-09T04:35:15;100019.19;;;18.12;70.70
9523;BME280;63165;43.016;25.784;2022-09-09T04:37:42;100010.69;;;18.06;70.69
9523;BME280;63165;43.016;25.784;2022-09-09T04:40:10;100020.69;;;18.18;70.80
9523;BME280;63165;43.016;25.784;2022-09-09T04:42:37;100024.22;;;18.18;71.42
9523;BME280;63165;43.016;25.784;2022-09-09T04:45:07;100021.38;;;18.21;71.56
9523;BME280;63165;43.016;25.784;2022-09-09T04:47:36;100033.56;;;18.26;71.12
9523;BME280;63165;43.016;25.784;2022-09-09T04:50:04;100030.75;;;18.29;72.11
9523;BME280;63165;43.016;25.784;2022-09-09T04:52:33;100033.03;;;18.36;71.40
9523;BME280;63165;43.016;25.784;2022-09-09T04:55:01;100031.78;;;18.43;72.25
9523;BME280;63165;43.016;25.784;2022-09-09T04:57:28;100032.13;;;18.55;71.42
9523;BME280;63165;43.016;25.784;2022-09-09T04:59:57;100045.84;;;18.63;71.80
9523;BME280;63165;43.016;25.784;2022-09-09T05:02:27;100045.41;;;18.72;72.74
9523;BME280;63165;43.016;25.784;2022-09-09T05:04:55;100045.81;;;18.82;72.69
9523;BME280;63165;43.016;25.784;2022-09-09T05:07:23;100050.88;;;18.87;72.59
9523;BME280;63165;43.016;25.784;2022-09-09T05:09:52;100052.91;;;18.99;72.93
9523;BME280;63165;43.016;25.784;2022-09-09T05:12:19;100053.97;;;19.12;73.15
9523;BME280;63165;43.016;25.784;2022-09-09T05:14:46;100047.22;;;19.23;72.93
9523;BME280;63165;43.016;25.784;2022-09-09T05:17:13;100055.41;;;19.35;72.95
9523;BME280;63165;43.016;25.784;2022-09-09T05:19:43;100027.25;;;19.33;73.05
9523;BME280;63165;43.016;25.784;2022-09-09T05:22:10;100024.81;;;19.46;72.45
9523;BME280;63165;43.016;25.784;2022-09-09T05:24:38;100055.19;;;19.73;72.69
9523;BME280;63165;43.016;25.784;2022-09-09T05:27:06;100046.38;;;19.89;72.33
9523;BME280;63165;43.016;25.784;2022-09-09T05:29:33;100042.09;;;20.02;71.65
9523;BME280;63165;43.016;25.784;2022-09-09T05:32:00;100048.34;;;20.17;71.77
9523;BME280;63165;43.016;25.784;2022-09-09T05:34:28;100043.19;;;20.30;71.15
9523;BME280;63165;43.016;25.784;2022-09-09T05:36:56;100038.59;;;20.48;71.25
9523;BME280;63165;43.016;25.784;2022-09-09T05:39:23;100035.94;;;20.64;70.29
9523;BME280;63165;43.016;25.784;2022-09-09T05:41:51;100028.78;;;20.80;70.31
9523;BME280;63165;43.016;25.784;2022-09-09T05:44:18;100034.69;;;21.00;69.51
9523;BME280;63165;43.016;25.784;2022-09-09T05:46:45;100026.53;;;21.17;67.15
9523;BME280;63165;43.016;25.784;2022-09-09T05:49:13;100020.22;;;21.34;66.89
9523;BME280;63165;43.016;25.784;2022-09-09T05:51:41;100000.22;;;21.41;65.02
9523;BME280;63165;43.016;25.784;2022-09-09T05:54:11;100018.88;;;21.70;63.20
9523;BME280;63165;43.016;25.784;2022-09-09T05:56:41;100014.16;;;21.88;62.84
9523;BME280;63165;43.016;25.784;2022-09-09T05:59:08;100010.31;;;22.06;62.62
9523;BME280;63165;43.016;25.784;2022-09-09T06:01:36;100005.59;;;22.24;61.16
9523;BME280;63165;43.016;25.784;2022-09-09T06:04:06;100006.31;;;22.41;60.25
9523;BME280;63165;43.016;25.784;2022-09-09T06:06:35;100003.38;;;22.58;59.81
9523;BME280;63165;43.016;25.784;2022-09-09T06:09:06;100014.38;;;22.79;59.81
9523;BME280;63165;43.016;25.784;2022-09-09T06:11:38;99993.06;;;22.92;59.27
9523;BME280;63165;43.016;25.784;2022-09-09T06:14:05;100001.94;;;23.18;58.20
9523;BME280;63165;43.016;25.784;2022-09-09T06:16:33;100006.00;;;23.37;58.47
9523;BME280;63165;43.016;25.784;2022-09-09T06:19:03;100002.88;;;23.56;57.25
9523;BME280;63165;43.016;25.784;2022-09-09T06:21:32;99998.97;;;23.73;57.22
9523;BME280;63165;43.016;25.784;2022-09-09T06:24:00;100005.34;;;23.96;56.20
9523;BME280;63165;43.016;25.784;2022-09-09T06:26:29;100001.66;;;24.10;54.98
9523;BME280;63165;43.016;25.784;2022-09-09T06:28:59;99978.50;;;24.21;54.59
9523;BME280;63165;43.016;25.784;2022-09-09T06:31:28;99979.56;;;24.43;54.65
9523;BME280;63165;43.016;25.784;2022-09-09T06:33:57;99985.03;;;24.66;55.16
9523;BME280;63165;43.016;25.784;2022-09-09T06:36:26;99983.84;;;24.92;54.79
9523;BME280;63165;43.016;25.784;2022-09-09T06:38:54;99981.19;;;25.15;54.30
9523;BME280;63165;43.016;25.784;2022-09-09T06:41:23;99963.22;;;25.28;52.21
9523;BME280;63165;43.016;25.784;2022-09-09T06:43:51;99983.16;;;25.58;51.69
9523;BME280;63165;43.016;25.784;2022-09-09T06:46:21;99983.41;;;25.77;52.14
9523;BME280;63165;43.016;25.784;2022-09-09T06:48:49;99981.66;;;25.99;52.03
9523;BME280;63165;43.016;25.784;2022-09-09T06:51:17;99985.25;;;26.21;52.36
9523;BME280;63165;43.016;25.784;2022-09-09T06:53:50;99983.31;;;26.44;51.49
9523;BME280;63165;43.016;25.784;2022-09-09T06:56:19;99978.84;;;26.65;48.32
9523;BME280;63165;43.016;25.784;2022-09-09T06:58:49;99976.16;;;26.86;47.60
9523;BME280;63165;43.016;25.784;2022-09-09T07:01:18;99972.31;;;27.10;46.65
9523;BME280;63165;43.016;25.784;2022-09-09T07:03:49;99977.53;;;27.33;45.12
9523;BME280;63165;43.016;25.784;2022-09-09T07:06:18;99977.59;;;27.52;44.10
9523;BME280;63165;43.016;25.784;2022-09-09T07:08:50;99968.75;;;27.71;43.70
9523;BME280;63165;43.016;25.784;2022-09-09T07:11:19;99969.81;;;27.99;42.86
9523;BME280;63165;43.016;25.784;2022-09-09T07:13:47;99969.09;;;28.17;42.21
9523;BME280;63165;43.016;25.784;2022-09-09T07:16:17;99980.16;;;28.43;41.91
9523;BME280;63165;43.016;25.784;2022-09-09T07:18:44;99966.16;;;28.59;41.36
9523;BME280;63165;43.016;25.784;2022-09-09T07:21:14;99977.44;;;28.82;39.90
9523;BME280;63165;43.016;25.784;2022-09-09T07:23:41;99965.06;;;28.99;38.63
9523;BME280;63165;43.016;25.784;2022-09-09T07:26:10;99960.22;;;29.12;38.44
9523;BME280;63165;43.016;25.784;2022-09-09T07:28:39;99965.53;;;29.32;38.27
9523;BME280;63165;43.016;25.784;2022-09-09T07:31:12;99962.03;;;29.49;38.38
9523;BME280;63165;43.016;25.784;2022-09-09T07:33:43;99956.16;;;29.64;37.33
9523;BME280;63165;43.016;25.784;2022-09-09T07:36:15;99955.19;;;29.83;37.11
9523;BME280;63165;43.016;25.784;2022-09-09T07:38:44;99955.09;;;30.02;36.96
9523;BME280;63165;43.016;25.784;2022-09-09T07:41:14;99958.00;;;30.27;36.67
9523;BME280;63165;43.016;25.784;2022-09-09T07:43:45;99955.97;;;30.47;36.06
9523;BME280;63165;43.016;25.784;2022-09-09T07:46:14;99951.72;;;30.62;34.83
9523;BME280;63165;43.016;25.784;2022-09-09T07:48:43;99952.69;;;30.79;34.67
9523;BME280;63165;43.016;25.784;2022-09-09T07:51:12;99948.56;;;30.93;33.99
9523;BME280;63165;43.016;25.784;2022-09-09T07:53:47;99963.50;;;31.05;34.18
9523;BME280;63165;43.016;25.784;2022-09-09T07:56:32;99960.56;;;31.25;33.55
9523;BME280;63165;43.016;25.784;2022-09-09T07:59:16;99882.28;;;31.07;33.60
9523;BME280;63165;43.016;25.784;2022-09-09T08:01:45;99954.16;;;31.68;34.12
9523;BME280;63165;43.016;25.784;2022-09-09T08:04:16;99937.91;;;31.52;33.52
9523;BME280;63165;43.016;25.784;2022-09-09T08:06:44;99940.84;;;31.83;32.57
9523;BME280;63165;43.016;25.784;2022-09-09T08:09:23;99947.00;;;32.10;32.04
9523;BME280;63165;43.016;25.784;2022-09-09T08:11:52;99952.75;;;32.31;32.40
9523;BME280;63165;43.016;25.784;2022-09-09T08:14:20;99946.84;;;32.36;31.30
9523;BME280;63165;43.016;25.784;2022-09-09T08:16:48;99951.41;;;32.52;31.09
9523;BME280;63165;43.016;25.784;2022-09-09T08:19:16;99952.44;;;32.59;30.63
9523;BME280;63165;43.016;25.784;2022-09-09T08:21:44;99939.56;;;32.61;29.90
9523;BME280;63165;43.016;25.784;2022-09-09T08:24:15;99941.59;;;32.67;29.28
9523;BME280;63165;43.016;25.784;2022-09-09T08:26:45;99929.91;;;32.75;29.60
9523;BME280;63165;43.016;25.784;2022-09-09T08:29:13;99928.34;;;32.89;29.56
9523;BME280;63165;43.016;25.784;2022-09-09T08:31:43;99927.63;;;33.03;29.14
9523;BME280;63165;43.016;25.784;2022-09-09T08:34:11;99927.63;;;33.12;29.11
9523;BME280;63165;43.016;25.784;2022-09-09T08:36:40;99896.94;;;33.03;28.69
9523;BME280;63165;43.016;25.784;2022-09-09T08:39:09;99919.16;;;33.15;28.85
9523;BME280;63165;43.016;25.784;2022-09-09T08:44:54;99902.09;;;33.37;28.14
9523;BME280;63165;43.016;25.784;2022-09-09T08:47:31;99896.97;;;33.42;28.11
9523;BME280;63165;43.016;25.784;2022-09-09T08:50:11;99904.75;;;33.45;27.99
9523;BME280;63165;43.016;25.784;2022-09-09T08:52:46;99900.72;;;33.41;27.53
9523;BME280;63165;43.016;25.784;2022-09-09T08:55:22;99895.34;;;33.33;27.42
9523;BME280;63165;43.016;25.784;2022-09-09T08:57:52;99898.91;;;33.25;26.94
9523;BME280;63165;43.016;25.784;2022-09-09T09:00:22;99908.41;;;33.30;27.35
9523;BME280;63165;43.016;25.784;2022-09-09T09:03:02;99897.91;;;33.26;27.03
9523;BME280;63165;43.016;25.784;2022-09-09T09:05:36;99902.78;;;33.31;26.97
9523;BME280;63165;43.016;25.784;2022-09-09T09:08:08;99910.25;;;33.29;26.77
9523;BME280;63165;43.016;25.784;2022-09-09T09:10:45;99901.63;;;33.25;26.72
9523;BME280;63165;43.016;25.784;2022-09-09T09:13:17;99902.31;;;33.28;27.14
9523;BME280;63165;43.016;25.784;2022-09-09T09:15:52;99904.34;;;33.25;26.83
9523;BME280;63165;43.016;25.784;2022-09-09T09:18:20;99902.34;;;33.19;26.66
9523;BME280;63165;43.016;25.784;2022-09-09T09:20:55;99901.50;;;33.19;26.98
9523;BME280;63165;43.016;25.784;2022-09-09T09:23:31;99894.75;;;33.15;27.32
9523;BME280;63165;43.016;25.784;2022-09-09T09:26:01;99900.28;;;33.21;26.93
9523;BME280;63165;43.016;25.784;2022-09-09T09:28:30;99890.00;;;33.17;26.80
9523;BME280;63165;43.016;25.784;2022-09-09T09:31:04;99897.09;;;33.18;27.10
9523;BME280;63165;43.016;25.784;2022-09-09T09:33:36;99889.31;;;33.15;27.40
9523;BME280;63165;43.016;25.784;2022-09-09T09:36:07;99895.53;;;33.23;27.03
9523;BME280;63165;43.016;25.784;2022-09-09T09:38:36;99893.69;;;33.24;27.31
9523;BME280;63165;43.016;25.784;2022-09-09T09:41:03;99903.16;;;33.28;27.66
9523;BME280;63165;43.016;25.784;2022-09-09T09:43:33;99906.53;;;33.30;27.31
9523;BME280;63165;43.016;25.784;2022-09-09T09:46:03;99895.69;;;33.30;26.78
9523;BME280;63165;43.016;25.784;2022-09-09T09:48:31;99898.41;;;33.30;27.15
9523;BME280;63165;43.016;25.784;2022-09-09T09:51:08;99895.50;;;33.32;26.88
9523;BME280;63165;43.016;25.784;2022-09-09T09:53:38;99892.75;;;33.40;27.10
9523;BME280;63165;43.016;25.784;2022-09-09T09:56:07;99890.84;;;33.49;26.88
9523;BME280;63165;43.016;25.784;2022-09-09T09:58:49;99894.88;;;33.53;26.66
9523;BME280;63165;43.016;25.784;2022-09-09T10:01:22;99896.38;;;33.55;26.95
9523;BME280;63165;43.016;25.784;2022-09-09T10:03:53;99876.56;;;33.55;27.05
9523;BME280;63165;43.016;25.784;2022-09-09T10:06:30;99884.97;;;33.68;27.20
9523;BME280;63165;43.016;25.784;2022-09-09T10:08:58;99890.53;;;33.75;27.09
9523;BME280;63165;43.016;25.784;2022-09-09T10:11:41;99890.66;;;33.81;27.36
9523;BME280;63165;43.016;25.784;2022-09-09T10:14:17;99872.13;;;33.85;26.80
9523;BME280;63165;43.016;25.784;2022-09-09T10:16:59;99878.13;;;33.80;27.15
9523;BME280;63165;43.016;25.784;2022-09-09T10:19:34;99884.31;;;33.89;26.92
9523;BME280;63165;43.016;25.784;2022-09-09T10:22:24;99893.31;;;33.90;26.72
9523;BME280;63165;43.016;25.784;2022-09-09T10:25:13;99889.56;;;33.91;26.69
9523;BME280;63165;43.016;25.784;2022-09-09T10:27:58;99874.81;;;33.93;27.17
9523;BME280;63165;43.016;25.784;2022-09-09T10:30:35;99880.72;;;33.97;27.07
9523;BME280;63165;43.016;25.784;2022-09-09T10:33:18;99881.25;;;33.92;26.75
9523;BME280;63165;43.016;25.784;2022-09-09T10:35:56;99880.94;;;33.87;26.79
9523;BME280;63165;43.016;25.784;2022-09-09T10:38:30;99863.22;;;33.76;26.63
9523;BME280;63165;43.016;25.784;2022-09-09T10:41:32;99895.72;;;33.84;26.98
9523;BME280;63165;43.016;25.784;2022-09-09T10:44:22;99891.13;;;33.85;26.70
9523;BME280;63165;43.016;25.784;2022-09-09T10:47:21;99891.50;;;33.82;27.00
9523;BME280;63165;43.016;25.784;2022-09-09T10:50:07;99890.13;;;33.86;27.07
9523;BME280;63165;43.016;25.784;2022-09-09T10:52:45;99879.44;;;33.84;26.99
9523;BME280;63165;43.016;25.784;2022-09-09T10:55:20;99882.38;;;33.98;26.98
9523;BME280;63165;43.016;25.784;2022-09-09T10:57:49;99869.66;;;33.98;27.04
9523;BME280;63165;43.016;25.784;2022-09-09T11:00:19;99870.13;;;34.02;26.77
9523;BME280;63165;43.016;25.784;2022-09-09T11:02:51;99871.91;;;34.10;26.91
9523;BME280;63165;43.016;25.784;2022-09-09T11:05:25;99866.28;;;34.19;26.95
9523;BME280;63165;43.016;25.784;2022-09-09T11:07:57;99875.13;;;34.36;26.71
9523;BME280;63165;43.016;25.784;2022-09-09T11:10:33;99866.22;;;34.42;26.51
9523;BME280;63165;43.016;25.784;2022-09-09T11:13:07;99863.41;;;34.51;26.91
9523;BME280;63165;43.016;25.784;2022-09-09T11:15:41;99857.44;;;34.55;26.40
9523;BME280;63165;43.016;25.784;2022-09-09T11:18:13;99865.13;;;34.67;26.40
9523;BME280;63165;43.016;25.784;2022-09-09T11:20:44;99861.97;;;34.78;26.59
9523;BME280;63165;43.016;25.784;2022-09-09T11:23:17;99851.75;;;34.80;26.25
9523;BME280;63165;43.016;25.784;2022-09-09T11:25:52;99858.78;;;34.89;25.74
9523;BME280;63165;43.016;25.784;2022-09-09T11:28:31;99852.97;;;34.92;25.67
9523;BME280;63165;43.016;25.784;2022-09-09T11:31:12;99853.88;;;34.99;25.78
9523;BME280;63165;43.016;25.784;2022-09-09T11:34:01;99843.09;;;35.06;25.94
9523;BME280;63165;43.016;25.784;2022-09-09T11:36:50;99842.72;;;35.09;26.12
9523;BME280;63165;43.016;25.784;2022-09-09T11:39:43;99839.88;;;35.17;25.70
9523;BME280;63165;43.016;25.784;2022-09-09T11:42:18;99842.97;;;35.29;25.67
9523;BME280;63165;43.016;25.784;2022-09-09T11:44:46;99850.56;;;35.34;25.11
9523;BME280;63165;43.016;25.784;2022-09-09T11:47:22;99834.63;;;35.31;25.04
9523;BME280;63165;43.016;25.784;2022-09-09T11:49:55;99832.19;;;35.36;25.13
9523;BME280;63165;43.016;25.784;2022-09-09T11:52:35;99834.38;;;35.47;24.93
9523;BME280;63165;43.016;25.784;2022-09-09T11:55:09;99830.03;;;35.53;24.95
9523;BME280;63165;43.016;25.784;2022-09-09T11:57:38;99825.44;;;35.53;24.93
9523;BME280;63165;43.016;25.784;2022-09-09T12:00:06;99825.09;;;35.63;24.70
9523;BME280;63165;43.016;25.784;2022-09-09T12:02:35;99829.00;;;35.69;24.55
9523;BME280;63165;43.016;25.784;2022-09-09T12:05:06;99815.63;;;35.74;24.46
9523;BME280;63165;43.016;25.784;2022-09-09T12:07:37;99816.91;;;35.78;24.39
9523;BME280;63165;43.016;25.784;2022-09-09T12:10:21;99804.16;;;35.79;24.62
9523;BME280;63165;43.016;25.784;2022-09-09T12:12:49;99811.97;;;35.88;24.40
9523;BME280;63165;43.016;25.784;2022-09-09T12:15:23;99773.41;;;35.85;24.95
9523;BME280;63165;43.016;25.784;2022-09-09T12:17:55;99803.19;;;36.14;24.68
9523;BME280;63165;43.016;25.784;2022-09-09T12:20:30;99794.03;;;36.22;24.61
9523;BME280;63165;43.016;25.784;2022-09-09T12:23:12;99768.41;;;36.17;23.99
9523;BME280;63165;43.016;25.784;2022-09-09T12:25:55;99775.84;;;36.29;23.76
9523;BME280;63165;43.016;25.784;2022-09-09T12:28:32;99776.56;;;36.38;23.96
9523;BME280;63165;43.016;25.784;2022-09-09T12:31:08;99768.59;;;36.43;23.97
9523;BME280;63165;43.016;25.784;2022-09-09T12:33:43;99776.81;;;36.50;24.13
9523;BME280;63165;43.016;25.784;2022-09-09T12:36:15;99772.44;;;36.56;24.05
9523;BME280;63165;43.016;25.784;2022-09-09T12:38:45;99765.94;;;36.57;24.08
9523;BME280;63165;43.016;25.784;2022-09-09T12:41:20;99770.41;;;36.64;23.55
9523;BME280;63165;43.016;25.784;2022-09-09T12:43:48;99754.19;;;36.56;23.53
9523;BME280;63165;43.016;25.784;2022-09-09T12:46:22;99748.72;;;36.49;23.63
9523;BME280;63165;43.016;25.784;2022-09-09T12:48:52;99751.84;;;36.46;23.85
9523;BME280;63165;43.016;25.784;2022-09-09T12:51:24;99748.88;;;36.41;23.96
9523;BME280;63165;43.016;25.784;2022-09-09T12:53:54;99753.88;;;36.31;23.61
9523;BME280;63165;43.016;25.784;2022-09-09T12:56:24;99757.53;;;36.17;23.86
9523;BME280;63165;43.016;25.784;2022-09-09T12:58:54;99745.66;;;35.96;24.13
9523;BME280;63165;43.016;25.784;2022-09-09T13:01:24;99755.94;;;35.72;24.50
9523;BME280;63165;43.016;25.784;2022-09-09T13:03:52;99755.75;;;35.52;24.46
9523;BME280;63165;43.016;25.784;2022-09-09T13:06:22;99755.19;;;35.35;25.35
9523;BME280;63165;43.016;25.784;2022-09-09T13:08:50;99754.59;;;35.18;25.22
9523;BME280;63165;43.016;25.784;2022-09-09T13:11:22;99748.91;;;34.98;25.21
9523;BME280;63165;43.016;25.784;2022-09-09T13:13:52;99753.91;;;34.80;25.42
9523;BME280;63165;43.016;25.784;2022-09-09T13:16:25;99736.66;;;34.58;25.56
9523;BME280;63165;43.016;25.784;2022-09-09T13:18:58;99751.56;;;34.47;26.12
9523;BME280;63165;43.016;25.784;2022-09-09T13:21:34;99748.66;;;34.34;26.49
9523;BME280;63165;43.016;25.784;2022-09-09T13:24:04;99753.25;;;34.18;26.96